Strona główna
METAR-TAF:

METAR-TAF

Lotnisko :

Port lotniczy Sliač

Bańska Bystrzyca, Słowacja

Szerokość geograficzna: 48-38-17N, Długość geograficzna: 019-08-03E, wysokość: 318 m

Aktualna obserwacja pogody

Raport powstał 21 minut temu, godzina 02:00 UTC
Wiatr 2 kt z kierunków zmiennych
Temperatura 16°C
Wilgotność 88%
Ciśnienie 1019 hPa
Widzialność 10 km lub więcej
Brak chmur poniżej 1500 m i brak chmur cumulonimbus

METAR: LZSL 240200Z VRB02KT CAVOK 16/14 Q1019

czas: 04:21 (02:21 UTC)

Prognoza

Raport powstał 3 godziny i 21 minut temu, godzina 23:00 UTC
Prognoza ważna od 24 godzina 00 UTC do 24 godzina 09 UTC
Wiatr 2 kt z kierunków zmiennych
Widzialność 10 km lub więcej
Brak chmur poniżej 1500 m i brak chmur cumulonimbus
Stopniowe zmiany
od 24 godzina 07 UTC do 24 godzina 09 UTC
Wiatr 5 kt od południowy wschód
Widzialność 10 km lub więcej
Mało chmury na wysokości 3500 ft

TAF: LZSL 232300Z 2400/2409 VRB02KT CAVOK BECMG 2407/2409 14005KT 9999 FEW035

Obserwacja i prognoza pogody dla ponad 4000 lotnisk (raport METAR i TAF).

Dostępne stacje oznaczono żółtymi i czerwonymi punktami na mapie.

Najedź kursorem aby zobaczyć nazwę stacji.

Kliknij aby zobaczyć obserwacje i prognozy pogody.

Aby zmienić mapę: kliknij na zielony przycisk z czarnym krzyżykiem, aby powiększyć; na zielony przycisk z myślnikiem, aby pomniejszyć; na zielone strzałki, aby przejść do map sąsiednich.


METAR-TAF: